ADDS METAR Data INFO
IDs: Format: Raw Decoded Include TAF

Data at: 1155 UTC 23 Jun 2018

KOWP 231135Z AUTO 05007KT 10SM CLR 21/20 A2977 RMK AO2 T02100198
KOWP 231115Z AUTO 01005KT 10SM CLR 21/20 A2978 RMK AO2 LTG DSNT SW T02100198
KOWP 231055Z AUTO 00000KT 10SM VCTS CLR 21/20 A2974 RMK AO2 LTG DSNT S T02110200
KOWP 231035Z AUTO 02004KT 10SM CLR 21/20 A2975 RMK AO2 T02110200
KOWP 231015Z AUTO 00000KT 10SM CLR 21/20 A2975 RMK AO2 LTG DSNT SW T02100198
KOWP 230955Z AUTO 02003KT 10SM CLR 21/20 A2972 RMK AO2 T02100197
KOWP 230935Z AUTO 00000KT 10SM CLR 21/20 A2972 RMK AO2 LTG DSNT S T02100196
KOWP 230915Z AUTO 00000KT 10SM CLR 21/20 A2971 RMK AO2 T02130197
KOWP 230855Z AUTO 16003KT 10SM CLR 22/20 A2972 RMK AO2 LTG DSNT SE 60016 T02150197
KOWP 230835Z AUTO 12005KT 10SM CLR 21/20 A2970 RMK AO2 T02130197
KOWP 230815Z AUTO 13006KT 10SM CLR 21/20 A2971 RMK AO2 LTG DSNT E T02120198
KOWP 230755Z AUTO 12006KT 10SM VCTS CLR 21/20 A2974 RMK AO2 T02120199
KOWP 230735Z AUTO 15008KT 10SM CLR 21/20 A2977 RMK AO2 LTG DSNT E THRU S T02110199
KOWP 230715Z AUTO 15007KT 10SM SCT120 21/20 A2978 RMK AO2 LTG DSNT E THRU SW T02100198
KOWP 230655Z AUTO 13009KT 10SM -VCTSRA SCT038 SCT049 BKN060 21/20 A2980 RMK AO2 LTG DSNT S P0016 T02110199
KOWP 230635Z AUTO 09009KT 7SM RA SCT020 BKN048 OVC060 21/20 A2986 RMK AO2 LTG DSNT SE THRU SW P0013 T02130200
KOWP 230615Z AUTO 36006KT 7SM RA SCT007 BKN035 OVC046 21/20 A2992 RMK AO2 LTG DSNT E THRU SW P0007 T02130200
KOWP 230555Z AUTO 33009G14KT 300V360 5SM TSRA SCT017 BKN035 OVC044 22/20 A2994 RMK AO2 LTG DSNT ALQS P0048 60051 T02150198 10310 20215 403150173
KOWP 230535Z AUTO 33011G16KT 310V010 4SM +VCTSRA SCT008 SCT018 OVC029 22/20 A2995 RMK AO2 LTG DSNT ALQS P0040 T02200200
KOWP 230515Z AUTO 31010G15KT 2 1/2SM +TSRA SCT008 BKN017 OVC046 23/20 A2995 RMK AO2 LTG DSNT ALQS P0029 T02280200
KOWP 230455Z AUTO 29005KT 10SM +TSRA OVC044 26/18 A2991 RMK AO2 LTG DSNT SW THRU N P0003 T02550183
KOWP 230435Z AUTO 33009G14KT 10SM SCT044 SCT110 25/18 A2989 RMK AO2 LTG DSNT SW THRU NW T02510184
KOWP 230415Z AUTO 09003KT 10SM VCTS CLR 25/18 A2979 RMK AO2 LTG DSNT W AND NW T02480184
KOWP 230355Z AUTO 00000KT 10SM SCT042 25/18 A2980 RMK AO2 LTG DSNT W AND NW T02540182
KOWP 230335Z AUTO 00000KT 10SM BKN042 25/18 A2980 RMK AO2 LTG DSNT NW T02490182
KOWP 230315Z AUTO 00000KT 10SM SCT042 25/18 A2980 RMK AO2 LTG DSNT W T02500177
KOWP 230255Z AUTO 00000KT 10SM CLR 25/18 A2978 RMK AO2 T02540176
KOWP 230235Z AUTO 00000KT 10SM CLR 25/18 A2979 RMK AO2 T02520176
KOWP 230215Z AUTO 00000KT 10SM CLR 27/17 A2977 RMK AO2 T02680173
KOWP 230155Z AUTO 08003KT 10SM CLR 27/18 A2975 RMK AO2 T02680175
KOWP 230135Z AUTO 09003KT 10SM CLR 28/18 A2974 RMK AO2 T02750175
KOWP 230115Z AUTO 07003KT 10SM CLR 29/17 A2974 RMK AO2 T02900173
KOWP 230055Z AUTO 00000KT 10SM CLR 30/17 A2974 RMK AO2 T03000168
KOWP 230035Z AUTO 06003KT 10SM CLR 30/17 A2974 RMK AO2 T03030165
KOWP 230015Z AUTO 10003KT 10SM CLR 31/16 A2974 RMK AO2 T03100163
KOWP 222355Z AUTO 09003KT 10SM CLR 31/16 A2975 RMK AO2 T03080163 10315 20278
KOWP 222335Z AUTO 07003KT 10SM CLR 31/16 A2975 RMK AO2 T03120158
KOWP 222315Z AUTO 00000KT 10SM CLR 31/16 A2976 RMK AO2 T03080158
KOWP 222255Z AUTO 05003KT 10SM CLR 31/16 A2977 RMK AO2 T03120158
KOWP 222235Z AUTO 01003KT 10SM CLR 31/16 A2978 RMK AO2 T03110159
KOWP 222215Z AUTO 07004KT 10SM CLR 31/16 A2977 RMK AO2 T03080159
KOWP 222155Z AUTO 02006KT 10SM CLR 31/16 A2977 RMK AO2 T03140159
KOWP 222135Z AUTO 00000KT 10SM CLR 31/16 A2978 RMK AO2 T03070164
KOWP 222115Z AUTO 36003KT 10SM CLR 31/16 A2978 RMK AO2 T03050164
KOWP 222055Z AUTO 31005KT 10SM CLR 31/16 A2981 RMK AO2 T03060163
KOWP 222035Z AUTO 00000KT 10SM CLR 30/16 A2982 RMK AO2 T02950157
KOWP 222015Z AUTO 34005KT 10SM CLR 30/17 A2984 RMK AO2 T02980169
KOWP 221955Z AUTO 32005KT 10SM CLR 30/18 A2984 RMK AO2 T02950179
KOWP 221935Z AUTO 28004KT 10SM CLR 29/18 A2985 RMK AO2 T02880178
KOWP 221915Z AUTO 28006KT 10SM CLR 29/18 A2987 RMK AO2 T02860177
KOWP 221855Z AUTO 31005KT 10SM CLR 29/18 A2987 RMK AO2 T02850178
KOWP 221835Z AUTO 27004KT 10SM CLR 28/17 A2988 RMK AO2 T02840174
KOWP 221815Z AUTO 30005KT 10SM CLR 28/17 A2988 RMK AO2 T02820174
KOWP 221755Z AUTO 29005KT 10SM CLR 28/17 A2989 RMK AO2 T02780173 10280 20182
KOWP 221735Z AUTO 26005KT 10SM CLR 28/18 A2989 RMK AO2 T02780176
KOWP 221715Z AUTO 28007KT 240V320 10SM CLR 28/17 A2990 RMK AO2 T02760172
KOWP 221655Z AUTO 26004KT 10SM CLR 28/17 A2989 RMK AO2 T02780173
KOWP 221635Z AUTO 00000KT 10SM CLR 27/17 A2989 RMK AO2 T02740172
KOWP 221615Z AUTO 32005KT 10SM CLR 27/17 A2990 RMK AO2 T02690173
KOWP 221555Z AUTO 31005KT 10SM CLR 26/17 A2991 RMK AO2 T02600172
KOWP 221535Z AUTO 32005KT 10SM CLR 26/17 A2990 RMK AO2 T02580173
KOWP 221515Z AUTO 29004KT 10SM CLR 25/17 A2991 RMK AO2 T02500170
KOWP 221455Z AUTO 34004KT 10SM CLR 25/17 A2991 RMK AO2 T02480169
KOWP 221435Z AUTO 31005KT 10SM CLR 24/17 A2991 RMK AO2 T02420170
KOWP 221415Z AUTO 30004KT 10SM CLR 24/17 A2990 RMK AO2 T02400170
KOWP 221355Z AUTO 00000KT 10SM CLR 24/17 A2990 RMK AO2 LTG DSNT S T02400168
KOWP 221335Z AUTO 33005KT 10SM CLR 24/17 A2989 RMK AO2 LTG DSNT S T02350170
KOWP 221315Z AUTO 35003KT 10SM CLR 22/17 A2988 RMK AO2 T02240169
KOWP 221255Z AUTO 33004KT 10SM CLR 22/17 A2988 RMK AO2 T02150165
KOWP 221235Z AUTO 34003KT 10SM CLR 21/17 A2989 RMK AO2 T02060170
KOWP 221215Z AUTO 00000KT 10SM CLR 19/17 A2990 RMK AO2 LTG DSNT SW T01940173
KOWP 221155Z AUTO 00000KT 10SM CLR 18/17 A2989 RMK AO2 T01810165 10236 20173
KOWP 221135Z AUTO 00000KT 10SM CLR 17/16 A2988 RMK AO2 T01730157
KOWP 221115Z AUTO 00000KT 10SM CLR 18/16 A2988 RMK AO2 T01770159
KOWP 221055Z AUTO 00000KT 10SM CLR 18/17 A2987 RMK AO2 T01820167
KOWP 221035Z AUTO 00000KT 10SM CLR 18/17 A2987 RMK AO2 T01790166
KOWP 221015Z AUTO 00000KT 10SM CLR 18/16 A2986 RMK AO2 T01780160
KOWP 220955Z AUTO 00000KT 10SM CLR 18/15 A2984 RMK AO2 T01750154
KOWP 220935Z AUTO 00000KT 10SM CLR 18/15 A2985 RMK AO2 T01810152
KOWP 220915Z AUTO 00000KT 10SM CLR 19/16 A2984 RMK AO2 T01940155
KOWP 220855Z AUTO 00000KT 10SM CLR 20/16 A2984 RMK AO2 T01950155
KOWP 220835Z AUTO 00000KT 10SM CLR 20/16 A2985 RMK AO2 T02000160
KOWP 220815Z AUTO 00000KT 10SM CLR 20/16 A2985 RMK AO2 T01970156
KOWP 220755Z AUTO 00000KT 10SM SCT090 21/15 A2986 RMK AO2 T02070153
KOWP 220735Z AUTO 00000KT 10SM BKN090 22/15 A2986 RMK AO2 T02220151
KOWP 220715Z AUTO 00000KT 10SM BKN090 22/15 A2986 RMK AO2 T02200150
KOWP 220655Z AUTO 00000KT 10SM BKN090 23/15 A2987 RMK AO2 T02250150
KOWP 220635Z AUTO 00000KT 10SM SCT090 23/15 A2986 RMK AO2 T02340146
KOWP 220615Z AUTO 00000KT 10SM CLR 22/15 A2986 RMK AO2 T02200149
KOWP 220555Z AUTO 00000KT 10SM CLR 24/15 A2987 RMK AO2 T02350146 10323 20235 403320211
KOWP 220535Z AUTO 36003KT 10SM SCT090 24/15 A2986 RMK AO2 T02420145
KOWP 220515Z AUTO 00000KT 10SM CLR 25/14 A2987 RMK AO2 T02450143
KOWP 220455Z AUTO 01004KT 10SM SCT090 25/14 A2986 RMK AO2 T02500141
KOWP 220435Z AUTO 03005KT 10SM CLR 25/14 A2987 RMK AO2 T02540140
KOWP 220415Z AUTO 03006KT 10SM CLR 26/14 A2986 RMK AO2 T02600136
KOWP 220355Z AUTO 02006KT 10SM SCT085 27/13 A2986 RMK AO2 T02680133
KOWP 220335Z AUTO 34003KT 10SM BKN085 27/15 A2985 RMK AO2 T02720151
KOWP 220315Z AUTO 00000KT 10SM SCT085 25/16 A2984 RMK AO2 T02520160
KOWP 220255Z AUTO 00000KT 10SM SCT085 25/16 A2984 RMK AO2 T02520156
KOWP 220235Z AUTO 00000KT 10SM SCT085 26/15 A2983 RMK AO2 T02600152
KOWP 220215Z AUTO 00000KT 10SM CLR 26/16 A2982 RMK AO2 T02600155
KOWP 220155Z AUTO 00000KT 10SM CLR 27/15 A2982 RMK AO2 T02710151
KOWP 220135Z AUTO 00000KT 10SM CLR 29/15 A2981 RMK AO2 T02850148
KOWP 220115Z AUTO 00000KT 10SM CLR 30/14 A2981 RMK AO2 T02960143
KOWP 220055Z AUTO 00000KT 10SM CLR 31/13 A2980 RMK AO2 T03070130
KOWP 220035Z AUTO 27005KT 10SM CLR 32/12 A2980 RMK AO2 T03150124
KOWP 220015Z AUTO 26004KT 10SM CLR 32/12 A2980 RMK AO2 T03210122